Terminal Aerodrome Forecast
Issued by NWS Twin Cities, MN

Home | Current Version | Previous Version | Graphics & Text | Print | Product List | Glossary On
Versions: 1 2 3 4 5 6 7 8 9 10 11 12 13 14 15 16 17
000
FTUS43 KMPX 272331
TAFEAU
TAF
KEAU 272331Z 2800/2824 31010G17KT 6SM -SHRA BR SCT008 OVC015
     FM280500 34007KT P6SM OVC008
     FM281500 01010G17KT P6SM BKN015 OVC035
     FM282000 01008KT P6SM SCT020 OVC050=

USA.gov is the U.S. government's official web portal to all federal, state and local government web resources and services.